Mount Victory, Ohio
Current Conditions -  °F | °C
As of 12:50 AM on Friday 28 Nov 2014 (Local Time) from KEDJ Reporting Station
Overcast Overcast  
Wind Chill: 14°   Ceiling: 1300
Heat Index: 25°   Visibility: 10mi
Dew Point: 19°   Wind: 12mph
Humidity: 80%   Direction: 270°W
Pressure: 30.33"   Gusts: NA
Location:  40.53°N, 83.52°W
Report Text: KEDJ 280550Z AUTO 27010KT 10SM OVC013 M04/M07 A3033 RMK AO1
Loading
Personal Weather Stations






























Interactive Weather Map New forecast layout! Learn more

10-Day Weather Forecast

Advertisements
Track Severe Weather on mobile